sensor_id;sensor_type;location;lat;lon;timestamp;P1;durP1;ratioP1;P2;durP2;ratioP2
24206;SDS011;12351;52.284;9.160;2023-08-20T00:02:39;10.83;;;8.93;;
24206;SDS011;12351;52.284;9.160;2023-08-20T00:08:17;11.70;;;8.65;;
24206;SDS011;12351;52.284;9.160;2023-08-20T00:11:07;11.43;;;8.57;;
24206;SDS011;12351;52.284;9.160;2023-08-20T00:13:58;11.40;;;8.20;;
24206;SDS011;12351;52.284;9.160;2023-08-20T00:16:48;11.07;;;8.17;;
24206;SDS011;12351;52.284;9.160;2023-08-20T00:19:40;10.20;;;8.23;;
24206;SDS011;12351;52.284;9.160;2023-08-20T00:22:28;12.40;;;8.10;;
24206;SDS011;12351;52.284;9.160;2023-08-20T00:25:19;9.33;;;7.50;;
24206;SDS011;12351;52.284;9.160;2023-08-20T00:28:10;9.23;;;7.90;;
24206;SDS011;12351;52.284;9.160;2023-08-20T00:30:59;8.10;;;7.10;;
24206;SDS011;12351;52.284;9.160;2023-08-20T00:33:50;10.40;;;7.60;;
24206;SDS011;12351;52.284;9.160;2023-08-20T00:36:39;10.37;;;7.80;;
24206;SDS011;12351;52.284;9.160;2023-08-20T00:39:29;12.17;;;7.67;;
24206;SDS011;12351;52.284;9.160;2023-08-20T00:42:21;8.43;;;7.40;;
24206;SDS011;12351;52.284;9.160;2023-08-20T00:45:14;11.53;;;7.35;;
24206;SDS011;12351;52.284;9.160;2023-08-20T00:48:03;10.87;;;6.83;;
24206;SDS011;12351;52.284;9.160;2023-08-20T00:50:55;8.97;;;7.40;;
24206;SDS011;12351;52.284;9.160;2023-08-20T00:53:45;7.87;;;6.90;;
24206;SDS011;12351;52.284;9.160;2023-08-20T00:56:35;14.00;;;7.23;;
24206;SDS011;12351;52.284;9.160;2023-08-20T00:59:26;9.60;;;6.77;;
24206;SDS011;12351;52.284;9.160;2023-08-20T01:02:17;9.50;;;6.13;;
24206;SDS011;12351;52.284;9.160;2023-08-20T01:05:09;9.47;;;5.23;;
24206;SDS011;12351;52.284;9.160;2023-08-20T01:10:52;8.53;;;4.93;;
24206;SDS011;12351;52.284;9.160;2023-08-20T01:13:40;6.80;;;4.53;;
24206;SDS011;12351;52.284;9.160;2023-08-20T01:16:32;8.93;;;4.70;;
24206;SDS011;12351;52.284;9.160;2023-08-20T01:19:20;8.23;;;4.70;;
24206;SDS011;12351;52.284;9.160;2023-08-20T01:30:46;9.60;;;3.97;;
24206;SDS011;12351;52.284;9.160;2023-08-20T01:33:38;5.03;;;3.97;;
24206;SDS011;12351;52.284;9.160;2023-08-20T01:36:28;7.17;;;3.57;;
24206;SDS011;12351;52.284;9.160;2023-08-20T01:39:19;6.73;;;4.13;;
24206;SDS011;12351;52.284;9.160;2023-08-20T01:42:09;6.07;;;3.83;;
24206;SDS011;12351;52.284;9.160;2023-08-20T01:45:01;6.20;;;3.80;;
24206;SDS011;12351;52.284;9.160;2023-08-20T01:47:51;6.53;;;3.67;;
24206;SDS011;12351;52.284;9.160;2023-08-20T01:50:41;5.23;;;3.30;;
24206;SDS011;12351;52.284;9.160;2023-08-20T01:53:31;4.17;;;2.77;;
24206;SDS011;12351;52.284;9.160;2023-08-20T01:56:21;7.53;;;3.10;;
24206;SDS011;12351;52.284;9.160;2023-08-20T01:59:13;5.10;;;2.93;;
24206;SDS011;12351;52.284;9.160;2023-08-20T02:02:02;4.75;;;2.83;;
24206;SDS011;12351;52.284;9.160;2023-08-20T02:04:52;5.23;;;3.00;;
24206;SDS011;12351;52.284;9.160;2023-08-20T02:10:33;3.23;;;2.57;;
24206;SDS011;12351;52.284;9.160;2023-08-20T02:13:26;5.60;;;2.85;;
24206;SDS011;12351;52.284;9.160;2023-08-20T02:22:09;5.23;;;2.73;;
24206;SDS011;12351;52.284;9.160;2023-08-20T02:25:00;4.53;;;2.70;;
24206;SDS011;12351;52.284;9.160;2023-08-20T02:27:49;3.23;;;2.57;;
24206;SDS011;12351;52.284;9.160;2023-08-20T02:30:40;7.47;;;2.87;;
24206;SDS011;12351;52.284;9.160;2023-08-20T02:33:29;3.63;;;2.30;;
24206;SDS011;12351;52.284;9.160;2023-08-20T02:36:20;8.67;;;2.50;;
24206;SDS011;12351;52.284;9.160;2023-08-20T02:39:12;4.00;;;2.10;;
24206;SDS011;12351;52.284;9.160;2023-08-20T02:42:01;5.47;;;2.50;;
24206;SDS011;12351;52.284;9.160;2023-08-20T02:44:52;5.23;;;2.50;;
24206;SDS011;12351;52.284;9.160;2023-08-20T02:47:41;6.63;;;2.77;;
24206;SDS011;12351;52.284;9.160;2023-08-20T02:50:33;3.27;;;2.40;;
24206;SDS011;12351;52.284;9.160;2023-08-20T02:53:21;6.00;;;2.40;;
24206;SDS011;12351;52.284;9.160;2023-08-20T02:56:11;4.53;;;2.20;;
24206;SDS011;12351;52.284;9.160;2023-08-20T02:58:59;5.50;;;2.20;;
24206;SDS011;12351;52.284;9.160;2023-08-20T03:01:51;3.47;;;1.90;;
24206;SDS011;12351;52.284;9.160;2023-08-20T03:04:39;4.13;;;2.17;;
24206;SDS011;12351;52.284;9.160;2023-08-20T03:07:29;3.07;;;2.03;;
24206;SDS011;12351;52.284;9.160;2023-08-20T03:10:20;3.50;;;2.10;;
24206;SDS011;12351;52.284;9.160;2023-08-20T03:13:12;4.30;;;1.93;;
24206;SDS011;12351;52.284;9.160;2023-08-20T03:16:00;8.90;;;2.00;;
24206;SDS011;12351;52.284;9.160;2023-08-20T03:18:52;4.40;;;2.20;;
24206;SDS011;12351;52.284;9.160;2023-08-20T03:21:43;5.87;;;2.10;;
24206;SDS011;12351;52.284;9.160;2023-08-20T03:24:31;5.27;;;1.97;;
24206;SDS011;12351;52.284;9.160;2023-08-20T03:27:23;5.33;;;2.07;;
24206;SDS011;12351;52.284;9.160;2023-08-20T03:30:13;4.40;;;1.80;;
24206;SDS011;12351;52.284;9.160;2023-08-20T03:33:02;4.87;;;1.93;;
24206;SDS011;12351;52.284;9.160;2023-08-20T03:35:52;4.23;;;2.03;;
24206;SDS011;12351;52.284;9.160;2023-08-20T03:38:45;5.63;;;1.90;;
24206;SDS011;12351;52.284;9.160;2023-08-20T03:41:39;4.47;;;1.70;;
24206;SDS011;12351;52.284;9.160;2023-08-20T03:44:30;4.00;;;1.60;;
24206;SDS011;12351;52.284;9.160;2023-08-20T03:50:08;7.45;;;1.85;;
24206;SDS011;12351;52.284;9.160;2023-08-20T03:52:57;2.20;;;1.43;;
24206;SDS011;12351;52.284;9.160;2023-08-20T03:55:48;4.23;;;1.60;;
24206;SDS011;12351;52.284;9.160;2023-08-20T03:58:36;3.73;;;1.57;;
24206;SDS011;12351;52.284;9.160;2023-08-20T04:01:26;4.07;;;1.50;;
24206;SDS011;12351;52.284;9.160;2023-08-20T04:04:16;3.10;;;1.83;;
24206;SDS011;12351;52.284;9.160;2023-08-20T04:07:08;6.67;;;1.77;;
24206;SDS011;12351;52.284;9.160;2023-08-20T04:09:58;2.87;;;1.80;;
24206;SDS011;12351;52.284;9.160;2023-08-20T04:12:46;3.77;;;1.60;;
24206;SDS011;12351;52.284;9.160;2023-08-20T04:15:36;2.57;;;1.50;;
24206;SDS011;12351;52.284;9.160;2023-08-20T04:18:25;4.93;;;1.60;;
24206;SDS011;12351;52.284;9.160;2023-08-20T04:21:16;2.67;;;1.70;;
24206;SDS011;12351;52.284;9.160;2023-08-20T04:24:06;5.17;;;1.40;;
24206;SDS011;12351;52.284;9.160;2023-08-20T04:26:56;4.50;;;1.53;;
24206;SDS011;12351;52.284;9.160;2023-08-20T04:29:45;5.10;;;1.40;;
24206;SDS011;12351;52.284;9.160;2023-08-20T04:32:38;3.50;;;1.37;;
24206;SDS011;12351;52.284;9.160;2023-08-20T04:35:27;5.40;;;1.53;;
24206;SDS011;12351;52.284;9.160;2023-08-20T04:38:17;3.33;;;1.47;;
24206;SDS011;12351;52.284;9.160;2023-08-20T04:41:07;4.03;;;1.30;;
24206;SDS011;12351;52.284;9.160;2023-08-20T04:43:58;5.03;;;1.40;;
24206;SDS011;12351;52.284;9.160;2023-08-20T04:46:48;4.27;;;1.60;;
24206;SDS011;12351;52.284;9.160;2023-08-20T04:49:36;4.90;;;1.57;;
24206;SDS011;12351;52.284;9.160;2023-08-20T04:52:26;5.87;;;1.40;;
24206;SDS011;12351;52.284;9.160;2023-08-20T04:55:18;5.03;;;1.60;;
24206;SDS011;12351;52.284;9.160;2023-08-20T04:58:10;3.95;;;1.50;;
24206;SDS011;12351;52.284;9.160;2023-08-20T05:00:59;4.50;;;1.63;;
24206;SDS011;12351;52.284;9.160;2023-08-20T05:03:52;3.37;;;1.60;;
24206;SDS011;12351;52.284;9.160;2023-08-20T05:06:40;3.87;;;1.50;;
24206;SDS011;12351;52.284;9.160;2023-08-20T05:09:31;4.07;;;1.30;;
24206;SDS011;12351;52.284;9.160;2023-08-20T05:12:20;4.43;;;1.40;;
24206;SDS011;12351;52.284;9.160;2023-08-20T05:15:10;6.73;;;1.33;;
24206;SDS011;12351;52.284;9.160;2023-08-20T05:18:00;3.40;;;1.33;;
24206;SDS011;12351;52.284;9.160;2023-08-20T05:20:51;3.70;;;1.50;;
24206;SDS011;12351;52.284;9.160;2023-08-20T05:23:39;5.80;;;1.40;;
24206;SDS011;12351;52.284;9.160;2023-08-20T05:26:27;5.37;;;1.70;;
24206;SDS011;12351;52.284;9.160;2023-08-20T05:29:17;3.70;;;1.40;;
24206;SDS011;12351;52.284;9.160;2023-08-20T05:32:07;2.37;;;1.40;;
24206;SDS011;12351;52.284;9.160;2023-08-20T05:34:59;3.60;;;1.40;;
24206;SDS011;12351;52.284;9.160;2023-08-20T05:37:50;2.17;;;1.37;;
24206;SDS011;12351;52.284;9.160;2023-08-20T05:40:40;4.93;;;1.80;;
24206;SDS011;12351;52.284;9.160;2023-08-20T05:43:28;4.00;;;1.50;;
24206;SDS011;12351;52.284;9.160;2023-08-20T05:46:19;5.20;;;1.57;;
24206;SDS011;12351;52.284;9.160;2023-08-20T05:49:10;5.03;;;1.50;;
24206;SDS011;12351;52.284;9.160;2023-08-20T05:51:59;5.83;;;1.47;;
24206;SDS011;12351;52.284;9.160;2023-08-20T05:54:45;4.63;;;1.87;;
24206;SDS011;12351;52.284;9.160;2023-08-20T05:57:38;5.83;;;1.87;;
24206;SDS011;12351;52.284;9.160;2023-08-20T06:00:27;3.43;;;1.67;;
24206;SDS011;12351;52.284;9.160;2023-08-20T06:03:17;2.70;;;1.80;;
24206;SDS011;12351;52.284;9.160;2023-08-20T06:06:08;2.80;;;1.67;;
24206;SDS011;12351;52.284;9.160;2023-08-20T06:08:58;4.53;;;2.00;;
24206;SDS011;12351;52.284;9.160;2023-08-20T06:11:47;3.33;;;2.07;;
24206;SDS011;12351;52.284;9.160;2023-08-20T06:14:37;3.83;;;1.90;;
24206;SDS011;12351;52.284;9.160;2023-08-20T06:17:29;6.28;;;2.37;;
24206;SDS011;12351;52.284;9.160;2023-08-20T06:20:19;3.40;;;1.97;;
24206;SDS011;12351;52.284;9.160;2023-08-20T06:23:08;5.87;;;2.37;;
24206;SDS011;12351;52.284;9.160;2023-08-20T06:25:59;6.40;;;2.37;;
24206;SDS011;12351;52.284;9.160;2023-08-20T06:28:49;4.12;;;2.50;;
24206;SDS011;12351;52.284;9.160;2023-08-20T06:31:39;6.17;;;2.50;;
24206;SDS011;12351;52.284;9.160;2023-08-20T06:34:29;3.00;;;2.30;;
24206;SDS011;12351;52.284;9.160;2023-08-20T06:37:17;2.60;;;2.40;;
24206;SDS011;12351;52.284;9.160;2023-08-20T06:40:07;4.87;;;2.30;;
24206;SDS011;12351;52.284;9.160;2023-08-20T06:42:58;4.70;;;2.53;;
24206;SDS011;12351;52.284;9.160;2023-08-20T06:45:47;3.40;;;2.40;;
24206;SDS011;12351;52.284;9.160;2023-08-20T06:48:37;6.30;;;2.67;;
24206;SDS011;12351;52.284;9.160;2023-08-20T06:51:27;4.37;;;2.60;;
24206;SDS011;12351;52.284;9.160;2023-08-20T06:54:18;8.00;;;3.80;;
24206;SDS011;12351;52.284;9.160;2023-08-20T06:57:11;4.07;;;2.30;;
24206;SDS011;12351;52.284;9.160;2023-08-20T07:00:00;3.50;;;1.90;;
24206;SDS011;12351;52.284;9.160;2023-08-20T07:02:51;4.23;;;2.00;;
24206;SDS011;12351;52.284;9.160;2023-08-20T07:05:42;2.80;;;1.90;;
24206;SDS011;12351;52.284;9.160;2023-08-20T07:08:29;2.93;;;1.80;;
24206;SDS011;12351;52.284;9.160;2023-08-20T07:11:18;3.13;;;1.50;;
24206;SDS011;12351;52.284;9.160;2023-08-20T07:14:06;2.67;;;1.37;;
24206;SDS011;12351;52.284;9.160;2023-08-20T07:16:56;3.10;;;1.60;;
24206;SDS011;12351;52.284;9.160;2023-08-20T07:19:47;2.67;;;1.57;;
24206;SDS011;12351;52.284;9.160;2023-08-20T07:22:36;3.63;;;1.47;;
24206;SDS011;12351;52.284;9.160;2023-08-20T07:25:28;3.53;;;1.37;;
24206;SDS011;12351;52.284;9.160;2023-08-20T07:28:17;3.23;;;1.60;;
24206;SDS011;12351;52.284;9.160;2023-08-20T07:31:07;2.53;;;1.60;;
24206;SDS011;12351;52.284;9.160;2023-08-20T07:33:59;3.53;;;1.67;;
24206;SDS011;12351;52.284;9.160;2023-08-20T07:36:49;2.00;;;1.60;;
24206;SDS011;12351;52.284;9.160;2023-08-20T07:39:41;4.78;;;1.67;;
24206;SDS011;12351;52.284;9.160;2023-08-20T07:42:30;2.83;;;2.20;;
24206;SDS011;12351;52.284;9.160;2023-08-20T07:45:20;4.50;;;2.00;;
24206;SDS011;12351;52.284;9.160;2023-08-20T07:48:13;4.80;;;2.23;;
24206;SDS011;12351;52.284;9.160;2023-08-20T07:51:01;4.70;;;2.47;;
24206;SDS011;12351;52.284;9.160;2023-08-20T07:53:51;5.10;;;2.10;;
24206;SDS011;12351;52.284;9.160;2023-08-20T07:56:39;4.80;;;2.20;;
24206;SDS011;12351;52.284;9.160;2023-08-20T07:59:31;2.57;;;2.37;;
24206;SDS011;12351;52.284;9.160;2023-08-20T08:02:20;4.35;;;2.67;;
24206;SDS011;12351;52.284;9.160;2023-08-20T08:05:10;4.37;;;2.70;;
24206;SDS011;12351;52.284;9.160;2023-08-20T08:08:02;4.50;;;2.47;;
24206;SDS011;12351;52.284;9.160;2023-08-20T08:10:54;6.83;;;2.47;;
24206;SDS011;12351;52.284;9.160;2023-08-20T08:13:43;4.03;;;2.80;;
24206;SDS011;12351;52.284;9.160;2023-08-20T08:16:32;3.50;;;3.20;;
24206;SDS011;12351;52.284;9.160;2023-08-20T08:19:25;3.40;;;2.50;;
24206;SDS011;12351;52.284;9.160;2023-08-20T08:22:13;3.27;;;2.40;;
24206;SDS011;12351;52.284;9.160;2023-08-20T08:25:05;7.20;;;3.50;;
24206;SDS011;12351;52.284;9.160;2023-08-20T08:27:55;8.37;;;3.60;;
24206;SDS011;12351;52.284;9.160;2023-08-20T08:30:43;5.80;;;3.13;;
24206;SDS011;12351;52.284;9.160;2023-08-20T08:33:33;5.97;;;3.50;;
24206;SDS011;12351;52.284;9.160;2023-08-20T08:36:21;5.13;;;3.53;;
24206;SDS011;12351;52.284;9.160;2023-08-20T08:39:12;3.90;;;3.40;;
24206;SDS011;12351;52.284;9.160;2023-08-20T08:42:05;4.50;;;3.07;;
24206;SDS011;12351;52.284;9.160;2023-08-20T08:44:55;5.43;;;3.70;;
24206;SDS011;12351;52.284;9.160;2023-08-20T08:47:46;5.35;;;3.22;;
24206;SDS011;12351;52.284;9.160;2023-08-20T08:50:36;5.67;;;3.97;;
24206;SDS011;12351;52.284;9.160;2023-08-20T08:53:26;6.13;;;3.97;;
24206;SDS011;12351;52.284;9.160;2023-08-20T08:56:17;5.63;;;4.23;;
24206;SDS011;12351;52.284;9.160;2023-08-20T08:59:06;4.57;;;3.43;;
24206;SDS011;12351;52.284;9.160;2023-08-20T09:01:58;5.87;;;3.50;;
24206;SDS011;12351;52.284;9.160;2023-08-20T09:04:47;4.03;;;3.40;;
24206;SDS011;12351;52.284;9.160;2023-08-20T09:07:40;6.83;;;3.53;;
24206;SDS011;12351;52.284;9.160;2023-08-20T09:10:29;5.30;;;4.07;;
24206;SDS011;12351;52.284;9.160;2023-08-20T09:16:13;6.25;;;2.90;;
24206;SDS011;12351;52.284;9.160;2023-08-20T09:19:03;3.00;;;2.58;;
24206;SDS011;12351;52.284;9.160;2023-08-20T09:21:54;5.47;;;2.80;;
24206;SDS011;12351;52.284;9.160;2023-08-20T09:27:38;5.20;;;2.90;;
24206;SDS011;12351;52.284;9.160;2023-08-20T09:30:21;3.50;;;3.03;;
24206;SDS011;12351;52.284;9.160;2023-08-20T09:33:12;3.73;;;3.20;;
24206;SDS011;12351;52.284;9.160;2023-08-20T09:36:04;4.73;;;3.23;;
24206;SDS011;12351;52.284;9.160;2023-08-20T09:38:54;2.93;;;2.70;;
24206;SDS011;12351;52.284;9.160;2023-08-20T09:41:42;5.17;;;2.73;;
24206;SDS011;12351;52.284;9.160;2023-08-20T09:44:35;2.83;;;2.17;;
24206;SDS011;12351;52.284;9.160;2023-08-20T09:47:25;2.47;;;2.27;;
24206;SDS011;12351;52.284;9.160;2023-08-20T09:50:13;2.53;;;2.30;;
24206;SDS011;12351;52.284;9.160;2023-08-20T09:53:04;2.93;;;2.03;;
24206;SDS011;12351;52.284;9.160;2023-08-20T09:55:56;5.78;;;2.58;;
24206;SDS011;12351;52.284;9.160;2023-08-20T09:58:47;3.67;;;2.70;;
24206;SDS011;12351;52.284;9.160;2023-08-20T10:01:35;7.87;;;2.70;;
24206;SDS011;12351;52.284;9.160;2023-08-20T10:04:29;2.90;;;2.65;;
24206;SDS011;12351;52.284;9.160;2023-08-20T10:07:19;2.60;;;2.40;;
24206;SDS011;12351;52.284;9.160;2023-08-20T10:10:09;2.52;;;2.08;;
24206;SDS011;12351;52.284;9.160;2023-08-20T10:12:58;5.13;;;2.20;;
24206;SDS011;12351;52.284;9.160;2023-08-20T10:15:48;2.73;;;2.10;;
24206;SDS011;12351;52.284;9.160;2023-08-20T10:18:40;4.53;;;2.10;;
24206;SDS011;12351;52.284;9.160;2023-08-20T10:21:27;2.63;;;2.20;;
24206;SDS011;12351;52.284;9.160;2023-08-20T10:24:19;4.37;;;2.40;;
24206;SDS011;12351;52.284;9.160;2023-08-20T10:27:08;3.53;;;3.00;;
24206;SDS011;12351;52.284;9.160;2023-08-20T10:30:01;2.52;;;2.30;;
24206;SDS011;12351;52.284;9.160;2023-08-20T10:32:51;3.13;;;2.33;;
24206;SDS011;12351;52.284;9.160;2023-08-20T10:38:31;5.33;;;2.60;;
24206;SDS011;12351;52.284;9.160;2023-08-20T10:41:21;3.83;;;2.30;;
24206;SDS011;12351;52.284;9.160;2023-08-20T10:44:13;2.50;;;2.30;;
24206;SDS011;12351;52.284;9.160;2023-08-20T10:47:06;4.53;;;2.63;;
24206;SDS011;12351;52.284;9.160;2023-08-20T10:49:56;3.37;;;2.60;;
24206;SDS011;12351;52.284;9.160;2023-08-20T10:52:49;4.70;;;2.62;;
24206;SDS011;12351;52.284;9.160;2023-08-20T10:55:40;6.03;;;3.03;;
24206;SDS011;12351;52.284;9.160;2023-08-20T10:58:30;3.57;;;2.50;;
24206;SDS011;12351;52.284;9.160;2023-08-20T11:01:23;5.03;;;2.67;;
24206;SDS011;12351;52.284;9.160;2023-08-20T11:07:03;3.42;;;2.20;;
24206;SDS011;12351;52.284;9.160;2023-08-20T11:09:54;4.70;;;2.00;;
24206;SDS011;12351;52.284;9.160;2023-08-20T11:12:46;3.93;;;2.23;;
24206;SDS011;12351;52.284;9.160;2023-08-20T11:15:37;2.57;;;1.97;;
24206;SDS011;12351;52.284;9.160;2023-08-20T11:18:27;2.03;;;1.83;;
24206;SDS011;12351;52.284;9.160;2023-08-20T11:21:17;4.30;;;1.70;;
24206;SDS011;12351;52.284;9.160;2023-08-20T11:24:09;3.77;;;1.90;;
24206;SDS011;12351;52.284;9.160;2023-08-20T11:27:00;3.87;;;1.80;;
24206;SDS011;12351;52.284;9.160;2023-08-20T11:29:52;2.80;;;2.37;;
24206;SDS011;12351;52.284;9.160;2023-08-20T11:32:45;4.03;;;1.93;;
24206;SDS011;12351;52.284;9.160;2023-08-20T11:35:33;4.20;;;1.90;;
24206;SDS011;12351;52.284;9.160;2023-08-20T11:38:25;2.60;;;2.10;;
24206;SDS011;12351;52.284;9.160;2023-08-20T11:41:15;2.30;;;1.93;;
24206;SDS011;12351;52.284;9.160;2023-08-20T11:44:07;2.77;;;2.20;;
24206;SDS011;12351;52.284;9.160;2023-08-20T11:46:58;2.50;;;2.30;;
24206;SDS011;12351;52.284;9.160;2023-08-20T11:55:30;2.77;;;2.27;;
24206;SDS011;12351;52.284;9.160;2023-08-20T11:58:19;3.23;;;2.30;;
24206;SDS011;12351;52.284;9.160;2023-08-20T12:01:10;4.53;;;2.50;;
24206;SDS011;12351;52.284;9.160;2023-08-20T12:04:03;4.17;;;2.20;;
24206;SDS011;12351;52.284;9.160;2023-08-20T12:09:45;3.57;;;2.43;;
24206;SDS011;12351;52.284;9.160;2023-08-20T12:12:36;4.60;;;2.37;;
24206;SDS011;12351;52.284;9.160;2023-08-20T12:15:32;3.40;;;2.63;;
24206;SDS011;12351;52.284;9.160;2023-08-20T12:18:22;4.03;;;2.50;;
24206;SDS011;12351;52.284;9.160;2023-08-20T12:21:16;2.45;;;2.22;;
24206;SDS011;12351;52.284;9.160;2023-08-20T12:24:06;3.60;;;2.30;;
24206;SDS011;12351;52.284;9.160;2023-08-20T12:26:55;3.83;;;2.73;;
24206;SDS011;12351;52.284;9.160;2023-08-20T12:29:43;5.57;;;2.83;;
24206;SDS011;12351;52.284;9.160;2023-08-20T12:32:34;2.90;;;2.37;;
24206;SDS011;12351;52.284;9.160;2023-08-20T12:35:24;3.37;;;2.67;;
24206;SDS011;12351;52.284;9.160;2023-08-20T12:38:15;3.47;;;2.50;;
24206;SDS011;12351;52.284;9.160;2023-08-20T12:41:03;2.73;;;2.53;;
24206;SDS011;12351;52.284;9.160;2023-08-20T12:43:54;3.53;;;2.77;;
24206;SDS011;12351;52.284;9.160;2023-08-20T12:46:44;3.00;;;2.47;;
24206;SDS011;12351;52.284;9.160;2023-08-20T12:49:33;4.30;;;2.47;;
24206;SDS011;12351;52.284;9.160;2023-08-20T12:52:26;3.27;;;2.70;;
24206;SDS011;12351;52.284;9.160;2023-08-20T12:55:16;2.95;;;2.52;;
24206;SDS011;12351;52.284;9.160;2023-08-20T12:58:09;3.60;;;2.60;;
24206;SDS011;12351;52.284;9.160;2023-08-20T13:01:01;3.23;;;2.93;;
24206;SDS011;12351;52.284;9.160;2023-08-20T13:03:47;2.73;;;2.43;;
24206;SDS011;12351;52.284;9.160;2023-08-20T13:06:38;6.43;;;2.80;;
24206;SDS011;12351;52.284;9.160;2023-08-20T13:12:19;3.40;;;2.90;;
24206;SDS011;12351;52.284;9.160;2023-08-20T13:15:10;3.65;;;2.87;;
24206;SDS011;12351;52.284;9.160;2023-08-20T13:18:00;3.70;;;2.80;;
24206;SDS011;12351;52.284;9.160;2023-08-20T13:20:52;3.03;;;2.73;;
24206;SDS011;12351;52.284;9.160;2023-08-20T13:23:41;2.73;;;2.50;;
24206;SDS011;12351;52.284;9.160;2023-08-20T13:26:32;4.27;;;2.93;;
24206;SDS011;12351;52.284;9.160;2023-08-20T13:29:22;4.80;;;2.80;;
24206;SDS011;12351;52.284;9.160;2023-08-20T13:32:13;3.03;;;2.60;;
24206;SDS011;12351;52.284;9.160;2023-08-20T13:35:01;3.07;;;2.53;;
24206;SDS011;12351;52.284;9.160;2023-08-20T13:37:53;3.07;;;2.87;;
24206;SDS011;12351;52.284;9.160;2023-08-20T13:40:42;3.47;;;3.17;;
24206;SDS011;12351;52.284;9.160;2023-08-20T13:43:34;2.80;;;2.60;;
24206;SDS011;12351;52.284;9.160;2023-08-20T13:46:23;3.27;;;2.90;;
24206;SDS011;12351;52.284;9.160;2023-08-20T13:49:13;3.73;;;2.70;;
24206;SDS011;12351;52.284;9.160;2023-08-20T13:52:04;3.93;;;2.90;;
24206;SDS011;12351;52.284;9.160;2023-08-20T13:54:53;4.00;;;3.10;;
24206;SDS011;12351;52.284;9.160;2023-08-20T13:57:42;3.00;;;2.70;;
24206;SDS011;12351;52.284;9.160;2023-08-20T14:00:32;3.50;;;2.73;;
24206;SDS011;12351;52.284;9.160;2023-08-20T14:03:27;4.00;;;2.87;;
24206;SDS011;12351;52.284;9.160;2023-08-20T14:06:18;2.90;;;2.70;;
24206;SDS011;12351;52.284;9.160;2023-08-20T14:09:04;3.83;;;2.73;;
24206;SDS011;12351;52.284;9.160;2023-08-20T14:11:57;5.13;;;3.17;;
24206;SDS011;12351;52.284;9.160;2023-08-20T14:14:51;5.50;;;2.93;;
24206;SDS011;12351;52.284;9.160;2023-08-20T14:17:44;5.55;;;3.17;;
24206;SDS011;12351;52.284;9.160;2023-08-20T14:20:35;6.27;;;3.23;;
24206;SDS011;12351;52.284;9.160;2023-08-20T14:23:26;3.20;;;2.90;;
24206;SDS011;12351;52.284;9.160;2023-08-20T14:26:16;4.37;;;3.00;;
24206;SDS011;12351;52.284;9.160;2023-08-20T14:29:06;3.20;;;2.90;;
24206;SDS011;12351;52.284;9.160;2023-08-20T14:31:55;3.50;;;3.20;;
24206;SDS011;12351;52.284;9.160;2023-08-20T14:34:43;3.10;;;2.80;;
24206;SDS011;12351;52.284;9.160;2023-08-20T14:37:35;3.30;;;2.90;;
24206;SDS011;12351;52.284;9.160;2023-08-20T14:40:23;2.87;;;2.67;;
24206;SDS011;12351;52.284;9.160;2023-08-20T14:43:12;3.73;;;2.80;;
24206;SDS011;12351;52.284;9.160;2023-08-20T14:46:01;4.30;;;3.00;;
24206;SDS011;12351;52.284;9.160;2023-08-20T14:48:54;3.33;;;2.70;;
24206;SDS011;12351;52.284;9.160;2023-08-20T14:51:43;3.10;;;2.80;;
24206;SDS011;12351;52.284;9.160;2023-08-20T14:54:33;3.65;;;3.17;;
24206;SDS011;12351;52.284;9.160;2023-08-20T14:57:21;5.10;;;3.00;;
24206;SDS011;12351;52.284;9.160;2023-08-20T15:00:12;3.30;;;3.00;;
24206;SDS011;12351;52.284;9.160;2023-08-20T15:03:00;3.90;;;3.10;;
24206;SDS011;12351;52.284;9.160;2023-08-20T15:05:51;3.65;;;2.80;;
24206;SDS011;12351;52.284;9.160;2023-08-20T15:08:42;3.67;;;3.00;;
24206;SDS011;12351;52.284;9.160;2023-08-20T15:11:33;3.30;;;2.70;;
24206;SDS011;12351;52.284;9.160;2023-08-20T15:14:21;4.47;;;3.50;;
24206;SDS011;12351;52.284;9.160;2023-08-20T15:17:11;3.90;;;3.20;;
24206;SDS011;12351;52.284;9.160;2023-08-20T15:19:59;3.30;;;3.00;;
24206;SDS011;12351;52.284;9.160;2023-08-20T15:22:50;3.33;;;3.02;;
24206;SDS011;12351;52.284;9.160;2023-08-20T15:25:40;5.00;;;2.90;;
24206;SDS011;12351;52.284;9.160;2023-08-20T15:28:32;4.30;;;3.00;;
24206;SDS011;12351;52.284;9.160;2023-08-20T15:31:24;3.73;;;3.10;;
24206;SDS011;12351;52.284;9.160;2023-08-20T15:34:15;4.08;;;3.08;;
24206;SDS011;12351;52.284;9.160;2023-08-20T15:37:05;2.87;;;2.63;;
24206;SDS011;12351;52.284;9.160;2023-08-20T15:39:54;3.23;;;3.00;;
24206;SDS011;12351;52.284;9.160;2023-08-20T15:42:44;5.37;;;3.13;;
24206;SDS011;12351;52.284;9.160;2023-08-20T15:45:35;3.73;;;2.93;;
24206;SDS011;12351;52.284;9.160;2023-08-20T15:48:28;5.80;;;2.97;;
24206;SDS011;12351;52.284;9.160;2023-08-20T15:51:20;3.40;;;3.10;;
24206;SDS011;12351;52.284;9.160;2023-08-20T15:54:09;3.67;;;2.97;;
24206;SDS011;12351;52.284;9.160;2023-08-20T15:57:05;4.10;;;3.27;;
24206;SDS011;12351;52.284;9.160;2023-08-20T16:02:44;3.85;;;3.05;;
24206;SDS011;12351;52.284;9.160;2023-08-20T16:05:36;5.03;;;3.10;;
24206;SDS011;12351;52.284;9.160;2023-08-20T16:08:26;6.67;;;2.80;;
24206;SDS011;12351;52.284;9.160;2023-08-20T16:11:18;4.33;;;3.20;;
24206;SDS011;12351;52.284;9.160;2023-08-20T16:14:08;5.63;;;3.10;;
24206;SDS011;12351;52.284;9.160;2023-08-20T16:16:58;3.10;;;2.80;;
24206;SDS011;12351;52.284;9.160;2023-08-20T16:19:49;4.33;;;2.70;;
24206;SDS011;12351;52.284;9.160;2023-08-20T16:22:39;4.17;;;2.83;;
24206;SDS011;12351;52.284;9.160;2023-08-20T16:25:29;4.27;;;2.77;;
24206;SDS011;12351;52.284;9.160;2023-08-20T16:28:18;3.60;;;3.00;;
24206;SDS011;12351;52.284;9.160;2023-08-20T16:31:07;4.30;;;2.57;;
24206;SDS011;12351;52.284;9.160;2023-08-20T16:33:59;3.57;;;2.90;;
24206;SDS011;12351;52.284;9.160;2023-08-20T16:36:49;3.20;;;2.90;;
24206;SDS011;12351;52.284;9.160;2023-08-20T16:42:29;2.92;;;2.72;;
24206;SDS011;12351;52.284;9.160;2023-08-20T16:45:18;2.87;;;2.67;;
24206;SDS011;12351;52.284;9.160;2023-08-20T16:48:08;5.30;;;2.70;;
24206;SDS011;12351;52.284;9.160;2023-08-20T16:50:58;3.50;;;3.10;;
24206;SDS011;12351;52.284;9.160;2023-08-20T16:53:49;4.72;;;2.90;;
24206;SDS011;12351;52.284;9.160;2023-08-20T16:56:43;2.87;;;2.60;;
24206;SDS011;12351;52.284;9.160;2023-08-20T16:59:33;3.80;;;2.97;;
24206;SDS011;12351;52.284;9.160;2023-08-20T17:02:24;3.23;;;2.60;;
24206;SDS011;12351;52.284;9.160;2023-08-20T17:05:14;3.30;;;2.70;;
24206;SDS011;12351;52.284;9.160;2023-08-20T17:08:05;4.10;;;2.83;;
24206;SDS011;12351;52.284;9.160;2023-08-20T17:11:02;4.23;;;2.43;;
24206;SDS011;12351;52.284;9.160;2023-08-20T17:13:46;2.80;;;2.53;;
24206;SDS011;12351;52.284;9.160;2023-08-20T17:16:39;3.70;;;2.87;;
24206;SDS011;12351;52.284;9.160;2023-08-20T17:19:27;3.50;;;3.00;;
24206;SDS011;12351;52.284;9.160;2023-08-20T17:22:16;4.60;;;3.10;;
24206;SDS011;12351;52.284;9.160;2023-08-20T17:25:09;3.40;;;2.77;;
24206;SDS011;12351;52.284;9.160;2023-08-20T17:27:59;6.73;;;3.00;;
24206;SDS011;12351;52.284;9.160;2023-08-20T17:30:47;3.57;;;3.13;;
24206;SDS011;12351;52.284;9.160;2023-08-20T17:33:38;4.13;;;2.90;;
24206;SDS011;12351;52.284;9.160;2023-08-20T17:36:30;4.90;;;3.50;;
24206;SDS011;12351;52.284;9.160;2023-08-20T17:39:18;3.23;;;2.93;;
24206;SDS011;12351;52.284;9.160;2023-08-20T17:42:09;5.23;;;3.10;;
24206;SDS011;12351;52.284;9.160;2023-08-20T17:44:58;3.23;;;2.90;;
24206;SDS011;12351;52.284;9.160;2023-08-20T17:47:48;3.77;;;3.10;;
24206;SDS011;12351;52.284;9.160;2023-08-20T17:50:39;4.30;;;2.90;;
24206;SDS011;12351;52.284;9.160;2023-08-20T17:53:30;4.63;;;3.57;;
24206;SDS011;12351;52.284;9.160;2023-08-20T17:56:19;4.03;;;3.30;;
24206;SDS011;12351;52.284;9.160;2023-08-20T17:59:11;5.70;;;3.43;;
24206;SDS011;12351;52.284;9.160;2023-08-20T18:02:01;4.60;;;3.23;;